createdAt,value
2023-01-22T09:06:39.940Z,5.28
2023-01-22T09:09:09.155Z,3.58
2023-01-22T09:11:37.930Z,3.45
2023-01-22T09:14:08.344Z,1.95
2023-01-22T09:16:37.221Z,2.33
2023-01-22T09:19:05.999Z,2.38
2023-01-22T09:21:37.157Z,2.08
2023-01-22T09:24:09.527Z,2.40
2023-01-22T09:26:38.406Z,3.13
2023-01-22T09:29:07.603Z,2.92
2023-01-22T09:31:37.668Z,2.15
2023-01-22T09:34:06.652Z,2.67
2023-01-22T09:36:35.493Z,1.98
2023-01-22T09:39:04.623Z,2.95
2023-01-22T09:41:38.712Z,3.35
2023-01-22T09:44:12.444Z,3.38
2023-01-22T09:46:45.236Z,3.72
2023-01-22T09:49:18.174Z,3.38
2023-01-22T09:51:54.337Z,3.15
2023-01-22T09:54:23.499Z,3.30
2023-01-22T09:56:57.560Z,3.40
2023-01-22T09:59:31.978Z,3.83
2023-01-22T10:02:10.790Z,2.70
2023-01-22T10:04:43.440Z,2.90
2023-01-22T10:07:18.552Z,3.42
2023-01-22T10:09:59.740Z,2.50
2023-01-22T10:12:31.077Z,2.42
2023-01-22T10:15:00.125Z,2.50
2023-01-22T10:17:35.248Z,2.30
2023-01-22T10:20:08.238Z,2.47
2023-01-22T10:22:36.940Z,2.20
2023-01-22T10:25:06.395Z,2.53
2023-01-22T10:27:40.379Z,2.30
2023-01-22T10:30:21.590Z,2.10
2023-01-22T10:33:01.774Z,2.30
2023-01-22T10:35:32.053Z,2.45
2023-01-22T10:38:01.953Z,1.90
2023-01-22T10:40:38.027Z,2.15
2023-01-22T10:43:13.834Z,2.08
2023-01-22T10:45:54.425Z,2.17
2023-01-22T10:48:24.139Z,2.20
2023-01-22T10:51:14.610Z,1.98
2023-01-22T10:53:49.440Z,2.80
2023-01-22T10:56:29.960Z,2.10
2023-01-22T10:59:03.322Z,2.92
2023-01-22T11:01:36.959Z,2.00
2023-01-22T11:04:15.779Z,2.10
2023-01-22T11:06:49.773Z,1.83
2023-01-22T11:09:22.879Z,1.98
2023-01-22T11:11:58.870Z,1.90
2023-01-22T11:14:34.148Z,1.63
2023-01-22T11:17:12.563Z,2.00
2023-01-22T11:19:46.289Z,1.80
2023-01-22T11:22:28.736Z,2.28
2023-01-22T11:24:57.320Z,1.85
2023-01-22T11:27:53.328Z,2.20
2023-01-22T11:31:18.653Z,2.05
2023-01-22T11:34:18.863Z,3.28
2023-01-22T11:36:53.442Z,3.42
2023-01-22T11:39:39.482Z,5.15
2023-01-22T11:42:24.806Z,6.82
2023-01-22T11:45:07.307Z,33.70
2023-01-22T11:48:16.792Z,29.20
2023-01-22T11:50:53.211Z,36.47
2023-01-22T11:53:47.815Z,33.42
2023-01-22T11:56:32.206Z,26.17
2023-01-22T11:59:11.082Z,26.02
2023-01-22T12:01:58.037Z,22.95
2023-01-22T12:05:14.323Z,24.90
2023-01-22T12:08:05.809Z,18.08
2023-01-22T12:10:55.034Z,12.63
2023-01-22T12:14:03.700Z,12.52
2023-01-22T12:16:41.987Z,14.57
2023-01-22T12:19:51.973Z,11.20
2023-01-22T12:22:31.607Z,10.13
2023-01-22T12:25:11.970Z,10.63
2023-01-22T12:27:47.243Z,8.50
2023-01-22T12:30:23.897Z,6.45
2023-01-22T12:32:58.514Z,8.38
2023-01-22T12:35:32.112Z,9.00
2023-01-22T12:38:12.249Z,16.02
2023-01-22T12:41:20.687Z,27.85
2023-01-22T12:43:54.318Z,63.47
2023-01-22T12:46:32.164Z,76.82
2023-01-22T12:49:07.964Z,64.07
2023-01-22T12:51:42.223Z,55.67
2023-01-22T12:54:30.162Z,48.35
2023-01-22T12:57:21.695Z,42.20
2023-01-22T12:59:52.025Z,39.65
2023-01-22T13:02:38.039Z,33.47
2023-01-22T13:05:21.232Z,35.28
2023-01-22T13:08:02.670Z,33.08
2023-01-22T13:10:33.548Z,167.18
2023-01-22T13:13:06.233Z,129.30
2023-01-22T13:15:39.332Z,79.40
2023-01-22T13:18:20.382Z,79.18
2023-01-22T13:20:57.576Z,164.80
2023-01-22T13:23:28.238Z,78.35
2023-01-22T13:25:58.875Z,57.83
2023-01-22T13:28:28.681Z,52.20
2023-01-22T13:30:59.917Z,47.22
2023-01-22T13:33:29.033Z,43.33
2023-01-22T13:35:59.538Z,39.13
2023-01-22T13:38:32.616Z,40.15
2023-01-22T13:41:08.376Z,38.45
2023-01-22T13:43:39.072Z,36.05
2023-01-22T13:46:08.476Z,31.05
2023-01-22T13:48:36.831Z,39.60
2023-01-22T13:51:14.376Z,29.80
2023-01-22T13:53:50.114Z,142.90
2023-01-22T13:56:22.770Z,88.03
2023-01-22T13:58:51.538Z,109.85
2023-01-22T14:01:31.354Z,145.57
2023-01-22T14:04:01.840Z,117.03
2023-01-22T14:06:30.914Z,167.88
2023-01-22T14:09:01.216Z,175.05
2023-01-22T14:11:40.058Z,142.77
2023-01-22T14:14:20.381Z,127.38
2023-01-22T14:16:49.546Z,74.43
2023-01-22T14:19:18.133Z,113.43
2023-01-22T14:21:46.891Z,70.22
2023-01-22T14:24:16.884Z,65.00
2023-01-22T14:26:45.368Z,69.22
2023-01-22T14:29:14.199Z,59.40
2023-01-22T14:31:42.682Z,45.75
2023-01-22T14:34:12.496Z,40.72
2023-01-22T14:36:41.109Z,29.08
2023-01-22T14:39:09.506Z,28.08
2023-01-22T14:41:39.365Z,24.20
2023-01-22T14:44:07.897Z,27.05
2023-01-22T14:46:38.087Z,24.38
2023-01-22T14:49:06.590Z,23.25
2023-01-22T14:51:34.962Z,23.63
2023-01-22T14:54:03.336Z,21.10
2023-01-22T14:56:31.785Z,19.58
2023-01-22T14:59:01.944Z,18.17
2023-01-22T15:01:30.409Z,15.90
2023-01-22T15:03:59.087Z,15.90
2023-01-22T15:06:27.468Z,14.77
2023-01-22T15:08:56.199Z,15.20
2023-01-22T15:11:24.732Z,13.70
2023-01-22T15:13:55.368Z,14.40
2023-01-22T15:16:25.415Z,15.00
2023-01-22T15:18:56.828Z,14.45
2023-01-22T15:21:25.537Z,14.57
2023-01-22T15:23:54.307Z,14.80
2023-01-22T15:26:26.753Z,17.13
2023-01-22T15:28:56.549Z,16.80
2023-01-22T15:31:27.053Z,14.43
2023-01-22T15:33:55.930Z,15.48
2023-01-22T15:36:24.945Z,13.15
2023-01-22T15:38:53.772Z,15.15
2023-01-22T15:41:25.635Z,14.27
2023-01-22T15:43:56.701Z,12.93
2023-01-22T15:46:28.880Z,12.30
2023-01-22T15:48:58.134Z,11.73
2023-01-22T15:51:27.270Z,10.95
2023-01-22T15:53:57.846Z,12.48
2023-01-22T15:56:29.764Z,10.80
2023-01-22T15:58:59.695Z,13.55
2023-01-22T16:01:32.162Z,12.27
2023-01-22T16:04:01.660Z,11.30
2023-01-22T16:06:32.405Z,9.75
2023-01-22T16:09:02.629Z,14.27
2023-01-22T16:11:32.834Z,10.80
2023-01-22T16:14:02.405Z,10.48
2023-01-22T16:16:36.547Z,9.55
2023-01-22T16:19:08.527Z,8.63
2023-01-22T16:21:37.521Z,11.98
2023-01-22T16:24:07.173Z,11.07
2023-01-22T16:26:36.342Z,8.68
2023-01-22T16:29:07.196Z,7.88
2023-01-22T16:31:38.259Z,9.07
2023-01-22T16:34:13.291Z,7.15
2023-01-22T16:36:43.297Z,9.45
2023-01-22T16:39:18.583Z,9.05
2023-01-22T16:41:49.858Z,10.30
2023-01-22T16:44:20.660Z,10.73
2023-01-22T16:46:54.179Z,7.05
2023-01-22T16:49:25.160Z,7.82
2023-01-22T16:51:55.693Z,7.90
2023-01-22T16:54:27.978Z,7.10
2023-01-22T16:56:58.640Z,7.00
2023-01-22T16:59:27.923Z,6.15
2023-01-22T17:02:01.629Z,10.40
2023-01-22T17:04:30.626Z,9.80
2023-01-22T17:07:32.732Z,8.10
2023-01-22T17:10:02.282Z,8.82
2023-01-22T17:12:30.997Z,6.72
2023-01-22T17:14:59.773Z,7.93
2023-01-22T17:17:29.871Z,8.00
2023-01-22T17:19:58.677Z,11.32
2023-01-22T17:22:27.579Z,9.55
2023-01-22T17:24:55.848Z,8.23
2023-01-22T17:27:33.471Z,6.07
2023-01-22T17:30:05.928Z,7.85
2023-01-22T17:32:39.031Z,5.78
2023-01-22T17:35:09.830Z,9.43
2023-01-22T17:37:39.072Z,8.93
2023-01-22T17:40:09.688Z,6.65
2023-01-22T17:42:38.233Z,7.63
2023-01-22T17:45:08.904Z,5.93
2023-01-22T17:47:38.757Z,5.78
2023-01-22T17:50:08.718Z,6.18
2023-01-22T17:52:37.806Z,5.28
2023-01-22T17:55:08.006Z,8.00
2023-01-22T17:57:36.597Z,6.53
2023-01-22T18:00:06.628Z,5.75
2023-01-22T18:02:37.989Z,6.53
2023-01-22T18:05:09.489Z,12.15
2023-01-22T18:07:39.009Z,10.25
2023-01-22T18:10:08.237Z,7.55
2023-01-22T18:12:36.791Z,6.57
2023-01-22T18:15:06.957Z,9.10
2023-01-22T18:17:36.015Z,7.10
2023-01-22T18:20:09.385Z,7.18
2023-01-22T18:22:38.042Z,10.25
2023-01-22T18:25:07.933Z,9.52
2023-01-22T18:27:36.499Z,7.80
2023-01-22T18:30:06.334Z,10.55
2023-01-22T18:32:35.817Z,8.77
2023-01-22T18:35:06.854Z,12.52
2023-01-22T18:37:37.492Z,10.90
2023-01-22T18:40:08.227Z,10.85
2023-01-22T18:42:36.975Z,9.02
2023-01-22T18:45:06.988Z,9.20
2023-01-22T18:47:37.216Z,10.05
2023-01-22T18:50:09.955Z,11.98
2023-01-22T18:52:38.564Z,14.55
2023-01-22T18:55:08.037Z,8.65
2023-01-22T18:57:41.560Z,8.02
2023-01-22T19:00:13.415Z,11.50
2023-01-22T19:02:42.025Z,9.75
2023-01-22T19:05:12.149Z,10.07
2023-01-22T19:07:40.576Z,10.60
2023-01-22T19:10:10.220Z,10.40
2023-01-22T19:12:38.776Z,9.73
2023-01-22T19:15:09.315Z,10.68
2023-01-22T19:17:38.000Z,11.68
2023-01-22T19:20:09.193Z,12.10
2023-01-22T19:22:39.134Z,12.15
2023-01-22T19:25:09.470Z,11.15
2023-01-22T19:27:38.757Z,12.93
2023-01-22T19:30:10.389Z,14.00
2023-01-22T19:32:39.168Z,11.65
2023-01-22T19:35:09.984Z,10.95
2023-01-22T19:37:39.748Z,9.98
2023-01-22T19:40:09.716Z,7.85
2023-01-22T19:42:40.059Z,9.40
2023-01-22T19:45:09.785Z,10.73
2023-01-22T19:47:38.241Z,11.00
2023-01-22T19:50:08.503Z,13.20
2023-01-22T19:52:36.897Z,9.55
2023-01-22T19:55:07.787Z,10.88
2023-01-22T19:57:36.338Z,13.32
2023-01-22T20:00:06.018Z,11.93
2023-01-22T20:02:37.920Z,13.88
2023-01-22T20:05:07.513Z,14.32
2023-01-22T20:07:36.263Z,11.05
2023-01-22T20:10:07.024Z,10.75
2023-01-22T20:12:35.582Z,11.90
2023-01-22T20:15:04.189Z,12.15
2023-01-22T20:17:34.086Z,14.70
2023-01-22T20:20:02.440Z,15.25
2023-01-22T20:22:30.888Z,14.07
2023-01-22T20:24:59.552Z,12.63
2023-01-22T20:27:29.639Z,13.88
2023-01-22T20:29:58.318Z,12.30
2023-01-22T20:32:28.631Z,13.18
2023-01-22T20:34:57.321Z,12.00
2023-01-22T20:37:26.391Z,14.07
2023-01-22T20:39:54.793Z,11.70
2023-01-22T20:42:23.255Z,13.48
2023-01-22T20:44:53.248Z,11.85
2023-01-22T20:47:21.613Z,10.40
2023-01-22T20:49:49.970Z,10.88
2023-01-22T20:52:19.961Z,13.27
2023-01-22T20:55:00.989Z,10.85
2023-01-22T20:57:30.990Z,13.32
2023-01-22T21:00:00.848Z,14.57
2023-01-22T21:02:29.535Z,11.45
2023-01-22T21:04:58.273Z,11.07
2023-01-22T21:07:26.687Z,11.45
2023-01-22T21:09:55.095Z,11.52
2023-01-22T21:12:23.537Z,10.88
2023-01-22T21:14:54.955Z,10.63
2023-01-22T21:17:24.720Z,12.38
2023-01-22T21:19:55.193Z,11.02
2023-01-22T21:22:23.630Z,11.48
2023-01-22T21:24:52.021Z,12.23
2023-01-22T21:27:20.593Z,12.73
2023-01-22T21:29:50.402Z,9.40
2023-01-22T21:32:19.157Z,13.20
2023-01-22T21:34:49.225Z,12.00
2023-01-22T21:37:17.818Z,12.07
2023-01-22T21:39:46.269Z,11.85
2023-01-22T21:42:32.252Z,9.52
2023-01-22T21:45:18.246Z,10.27
2023-01-22T21:47:46.653Z,12.20
2023-01-22T21:50:17.260Z,9.30
2023-01-22T21:52:48.897Z,11.60
2023-01-22T21:55:17.646Z,12.63
2023-01-22T21:57:46.429Z,12.98
2023-01-22T22:00:16.316Z,12.93
2023-01-22T22:02:45.151Z,12.05
2023-01-22T22:05:15.952Z,14.95
2023-01-22T22:07:44.615Z,16.70
2023-01-22T22:10:14.996Z,15.68
2023-01-22T22:12:43.761Z,13.30
2023-01-22T22:15:12.697Z,15.82
2023-01-22T22:17:41.254Z,14.35
2023-01-22T22:20:12.462Z,15.55
2023-01-22T22:22:42.267Z,13.95
2023-01-22T22:25:11.460Z,14.07
2023-01-22T22:27:39.916Z,18.23
2023-01-22T22:30:10.542Z,17.27
2023-01-22T22:32:39.122Z,18.55
2023-01-22T22:35:08.641Z,13.57
2023-01-22T22:37:38.220Z,11.63
2023-01-22T22:40:11.021Z,11.07
2023-01-22T22:42:39.848Z,13.93
2023-01-22T22:45:10.235Z,11.63
2023-01-22T22:47:38.941Z,13.07
2023-01-22T22:50:10.443Z,13.35
2023-01-22T22:52:38.895Z,12.85
2023-01-22T22:55:10.105Z,13.30
2023-01-22T22:57:38.754Z,15.02
2023-01-22T23:00:14.655Z,13.43
2023-01-22T23:02:43.900Z,10.07
2023-01-22T23:05:12.570Z,10.73
2023-01-22T23:07:41.097Z,11.95
2023-01-22T23:10:28.694Z,11.32
2023-01-22T23:12:59.501Z,13.65
2023-01-22T23:15:38.510Z,11.57
2023-01-22T23:18:07.422Z,12.68
2023-01-22T23:20:37.376Z,16.65
2023-01-22T23:23:06.621Z,14.32
2023-01-22T23:25:45.528Z,12.63
2023-01-22T23:31:18.030Z,13.18
2023-01-22T23:38:38.311Z,12.60
2023-01-22T23:41:16.342Z,12.52
2023-01-22T23:43:45.418Z,10.63
